createdAt,value
2022-08-25T00:01:51.924Z,100527.77
2022-08-25T00:04:21.640Z,100526.66
2022-08-25T00:06:51.111Z,100520.36
2022-08-25T00:09:22.199Z,100511.10
2022-08-25T00:11:51.857Z,100510.83
2022-08-25T00:14:24.373Z,100507.84
2022-08-25T00:16:52.941Z,100504.98
2022-08-25T00:19:28.224Z,100503.16
2022-08-25T00:21:56.486Z,100498.58
2022-08-25T00:24:24.930Z,100492.16
2022-08-25T00:26:55.218Z,100492.64
2022-08-25T00:29:27.905Z,100488.49
2022-08-25T00:31:56.435Z,100490.25
2022-08-25T00:34:34.119Z,100492.23
2022-08-25T00:37:04.166Z,100492.15
2022-08-25T00:39:31.898Z,100492.08
2022-08-25T00:42:00.682Z,100489.55
2022-08-25T00:44:30.484Z,100484.05
2022-08-25T00:47:01.039Z,100487.62
2022-08-25T00:49:55.181Z,100489.20
2022-08-25T00:52:28.156Z,100487.80
2022-08-25T00:55:08.159Z,100483.59
2022-08-25T00:57:47.075Z,100478.77
2022-08-25T01:00:23.229Z,100470.48
2022-08-25T01:02:51.745Z,100469.06
2022-08-25T01:05:20.607Z,100468.76
2022-08-25T01:07:50.123Z,100470.35
2022-08-25T01:10:19.702Z,100468.23
2022-08-25T01:12:49.107Z,100472.11
2022-08-25T01:15:17.140Z,100467.08
2022-08-25T01:17:51.398Z,100465.31
2022-08-25T01:20:22.823Z,100463.16
2022-08-25T01:22:58.088Z,100465.61
2022-08-25T01:25:42.335Z,100465.60
2022-08-25T01:28:10.919Z,100468.93
2022-08-25T01:30:39.540Z,100468.38
2022-08-25T01:33:10.369Z,100468.14
2022-08-25T01:35:40.350Z,100465.92
2022-08-25T01:38:08.304Z,100464.96
2022-08-25T01:40:39.567Z,100465.54
2022-08-25T01:43:12.961Z,100465.15
2022-08-25T01:45:44.335Z,100467.17
2022-08-25T01:48:15.497Z,100467.54
2022-08-25T01:50:44.158Z,100466.27
2022-08-25T01:53:19.485Z,100467.36
2022-08-25T01:55:55.244Z,100468.77
2022-08-25T01:58:42.763Z,100461.84
2022-08-25T02:01:15.967Z,100462.74
2022-08-25T02:03:45.077Z,100466.81
2022-08-25T02:06:17.592Z,100471.38
2022-08-25T02:08:46.731Z,100473.17
2022-08-25T02:11:15.386Z,100474.79
2022-08-25T02:13:42.987Z,100469.84
2022-08-25T02:16:18.284Z,100469.70
2022-08-25T02:18:47.127Z,100469.42
2022-08-25T02:21:15.157Z,100469.67
2022-08-25T02:23:43.483Z,100471.05
2022-08-25T02:26:11.300Z,100468.95
2022-08-25T02:28:39.387Z,100470.36
2022-08-25T02:31:07.127Z,100469.87
2022-08-25T02:33:34.846Z,100470.11
2022-08-25T02:36:03.092Z,100470.06
2022-08-25T02:38:30.980Z,100472.88
2022-08-25T02:41:00.734Z,100477.27
2022-08-25T02:43:29.555Z,100500.38
2022-08-25T02:45:57.398Z,100517.08
2022-08-25T02:48:25.604Z,100521.86
2022-08-25T02:50:53.296Z,100521.63
2022-08-25T02:53:21.627Z,100521.78
2022-08-25T02:55:49.266Z,100532.82
2022-08-25T02:58:16.912Z,100538.36
2022-08-25T03:00:46.265Z,100535.39
2022-08-25T03:03:15.259Z,100537.57
2022-08-25T03:05:43.062Z,100535.70
2022-08-25T03:08:11.112Z,100530.14
2022-08-25T03:10:39.135Z,100509.09
2022-08-25T03:13:07.274Z,100492.00
2022-08-25T03:15:37.704Z,100499.94
2022-08-25T03:18:06.333Z,100515.67
2022-08-25T03:20:36.482Z,100529.85
2022-08-25T03:23:05.654Z,100531.77
2022-08-25T03:25:48.378Z,100527.23
2022-08-25T03:28:17.198Z,100525.91
2022-08-25T03:30:45.204Z,100516.26
2022-08-25T03:33:13.047Z,100515.08
2022-08-25T03:35:41.359Z,100511.52
2022-08-25T03:38:09.055Z,100522.89
2022-08-25T03:40:37.044Z,100525.32
2022-08-25T03:43:04.923Z,100528.83
2022-08-25T03:45:32.592Z,100526.73
2022-08-25T03:48:00.425Z,100520.90
2022-08-25T03:50:28.009Z,100513.15
2022-08-25T03:52:56.991Z,100502.84
2022-08-25T03:55:25.959Z,100495.45
2022-08-25T03:57:54.835Z,100482.59
2022-08-25T04:00:23.633Z,100469.85
2022-08-25T04:02:51.400Z,100480.42
2022-08-25T04:05:20.187Z,100498.40
2022-08-25T04:07:47.879Z,100504.10
2022-08-25T04:10:15.651Z,100494.48
2022-08-25T04:12:43.362Z,100487.65
2022-08-25T04:15:11.413Z,100477.36
2022-08-25T04:17:40.057Z,100470.85
2022-08-25T04:20:10.636Z,100473.98
2022-08-25T04:22:45.188Z,100470.25
2022-08-25T04:25:13.759Z,100470.98
2022-08-25T04:27:42.267Z,100468.50
2022-08-25T04:30:10.928Z,100470.81
2022-08-25T04:32:38.691Z,100470.35
2022-08-25T04:35:07.499Z,100464.93
2022-08-25T04:37:35.217Z,100459.15
2022-08-25T04:40:04.637Z,100468.93
2022-08-25T04:42:32.756Z,100474.57
2022-08-25T04:45:01.814Z,100467.10
2022-08-25T04:47:29.878Z,100459.91
2022-08-25T04:49:57.491Z,100448.25
2022-08-25T04:52:25.145Z,100445.38
2022-08-25T04:54:53.044Z,100439.86
2022-08-25T04:57:20.753Z,100432.13
2022-08-25T04:59:48.712Z,100434.79
2022-08-25T05:02:16.311Z,100436.94
2022-08-25T05:04:44.002Z,100446.77
2022-08-25T05:07:11.642Z,100448.35
2022-08-25T05:09:39.396Z,100447.78
2022-08-25T05:12:07.331Z,100445.20
2022-08-25T05:14:35.178Z,100446.14
2022-08-25T05:17:03.208Z,100436.85
2022-08-25T05:19:31.837Z,100432.45
2022-08-25T05:21:59.473Z,100431.39
2022-08-25T05:24:28.219Z,100433.87
2022-08-25T05:26:56.430Z,100433.46
2022-08-25T05:29:24.258Z,100438.59
2022-08-25T05:31:51.921Z,100433.36
2022-08-25T05:34:20.263Z,100428.06
2022-08-25T05:36:48.679Z,100425.52
2022-08-25T05:39:17.206Z,100427.63
2022-08-25T05:41:46.158Z,100433.17
2022-08-25T05:44:19.168Z,100434.18
2022-08-25T05:46:49.304Z,100431.09
2022-08-25T05:49:17.304Z,100428.83
2022-08-25T05:51:44.897Z,100420.62
2022-08-25T05:54:12.492Z,100422.64
2022-08-25T05:56:40.160Z,100420.84
2022-08-25T05:59:09.651Z,100419.77
2022-08-25T06:01:53.541Z,100418.59
2022-08-25T06:04:22.552Z,100419.90
2022-08-25T06:06:53.401Z,100420.45
2022-08-25T06:09:22.344Z,100424.75
2022-08-25T06:11:54.508Z,100427.64
2022-08-25T06:14:23.869Z,100439.77
2022-08-25T06:16:52.386Z,100456.83
2022-08-25T06:19:21.106Z,100462.88
2022-08-25T06:21:52.748Z,100467.15
2022-08-25T06:24:20.318Z,100482.39
2022-08-25T06:26:47.971Z,100487.73
2022-08-25T06:29:15.594Z,100482.37
2022-08-25T06:31:44.095Z,100482.83
2022-08-25T06:34:12.739Z,100487.73
2022-08-25T06:36:40.860Z,100484.64
2022-08-25T06:39:10.628Z,100484.15
2022-08-25T06:41:39.085Z,100479.34
2022-08-25T06:44:06.812Z,100474.48
2022-08-25T06:46:36.837Z,100475.13
2022-08-25T06:49:06.656Z,100475.07
2022-08-25T06:51:35.961Z,100485.48
2022-08-25T06:54:06.520Z,100493.70
2022-08-25T06:56:34.293Z,100495.77
2022-08-25T06:59:05.893Z,100480.08
2022-08-25T07:01:34.848Z,100478.31
2022-08-25T07:04:10.125Z,100480.21
2022-08-25T07:06:39.697Z,100482.11
2022-08-25T07:09:09.271Z,100478.13
2022-08-25T07:11:37.959Z,100480.42
2022-08-25T07:14:08.079Z,100484.10
2022-08-25T07:16:36.589Z,100480.73
2022-08-25T07:19:05.483Z,100478.91
2022-08-25T07:21:37.367Z,100487.22
2022-08-25T07:24:08.733Z,100485.55
2022-08-25T07:26:39.117Z,100487.62
2022-08-25T07:29:15.717Z,100488.40
2022-08-25T07:31:43.461Z,100488.52
2022-08-25T07:34:28.486Z,100491.05
2022-08-25T07:36:57.670Z,100493.34
2022-08-25T07:39:28.494Z,100489.05
2022-08-25T07:41:57.204Z,100488.29
2022-08-25T07:44:27.918Z,100487.55
2022-08-25T07:46:56.397Z,100485.48
2022-08-25T07:49:26.547Z,100481.54
2022-08-25T07:52:06.437Z,100482.89
2022-08-25T07:54:38.025Z,100478.23
2022-08-25T07:57:08.777Z,100475.77
2022-08-25T07:59:44.354Z,100478.29
2022-08-25T08:02:18.270Z,100476.79
2022-08-25T08:04:50.278Z,100476.58
2022-08-25T08:07:20.410Z,100483.39
2022-08-25T08:09:55.800Z,100486.48
2022-08-25T08:12:35.287Z,100484.73
2022-08-25T08:15:04.920Z,100485.02
2022-08-25T08:17:39.666Z,100483.45
2022-08-25T08:20:10.533Z,100488.39
2022-08-25T08:22:41.229Z,100492.03
2022-08-25T08:25:13.688Z,100488.06
2022-08-25T08:27:47.151Z,100486.77
2022-08-25T08:30:14.966Z,100488.33
2022-08-25T08:33:06.295Z,100489.05
2022-08-25T08:35:30.914Z,100492.04
2022-08-25T08:37:59.615Z,100491.45
2022-08-25T08:40:29.119Z,100489.46
2022-08-25T08:43:13.334Z,100490.94
2022-08-25T08:45:51.876Z,100487.60
2022-08-25T08:48:52.877Z,100483.35
2022-08-25T08:51:25.029Z,100480.95
2022-08-25T08:54:00.094Z,100480.02
2022-08-25T08:56:45.374Z,100485.11
2022-08-25T08:59:21.912Z,100478.86
2022-08-25T09:02:01.062Z,100476.92
2022-08-25T09:04:37.299Z,100476.45
2022-08-25T09:07:12.011Z,100478.73
2022-08-25T09:09:43.156Z,100473.77
2022-08-25T09:12:20.739Z,100470.30
2022-08-25T09:14:57.741Z,100472.22
2022-08-25T09:17:54.730Z,100468.20
2022-08-25T09:20:32.087Z,100470.66
2022-08-25T09:23:20.218Z,100463.48
2022-08-25T09:26:13.137Z,100459.55
2022-08-25T09:29:17.268Z,100459.27
2022-08-25T09:31:45.491Z,100463.23
2022-08-25T09:34:19.568Z,100461.52
2022-08-25T09:36:48.585Z,100464.50
2022-08-25T09:39:17.002Z,100462.80
2022-08-25T09:41:51.283Z,100462.17
2022-08-25T09:44:24.304Z,100468.41
2022-08-25T09:47:08.305Z,100464.26
2022-08-25T09:49:40.149Z,100464.00
2022-08-25T09:52:33.639Z,100464.00
2022-08-25T09:55:01.500Z,100461.58
2022-08-25T09:57:34.853Z,100457.33
2022-08-25T10:00:19.728Z,100457.05
2022-08-25T10:03:22.809Z,100458.23
2022-08-25T10:05:56.620Z,100456.89
2022-08-25T10:08:31.479Z,100450.05
2022-08-25T10:11:01.644Z,100446.42
2022-08-25T10:13:42.217Z,100444.85
2022-08-25T10:16:35.811Z,100445.10
2022-08-25T10:19:28.016Z,100438.67
2022-08-25T10:22:21.633Z,100434.52
2022-08-25T10:24:49.948Z,100426.50
2022-08-25T10:27:29.288Z,100424.10
2022-08-25T10:30:17.938Z,100420.27
2022-08-25T10:33:13.063Z,100416.96
2022-08-25T10:35:47.877Z,100415.09
2022-08-25T10:38:39.694Z,100417.27
2022-08-25T10:41:42.933Z,100409.30
2022-08-25T10:44:30.958Z,100408.66
2022-08-25T10:47:29.541Z,100401.67
2022-08-25T10:50:19.408Z,100403.32
2022-08-25T10:53:09.589Z,100399.39
2022-08-25T10:56:03.146Z,100395.60
2022-08-25T10:59:06.230Z,100389.55
2022-08-25T11:02:03.192Z,100388.04
2022-08-25T11:04:37.987Z,100388.55
2022-08-25T11:07:20.516Z,100382.60
2022-08-25T11:09:51.991Z,100382.05
2022-08-25T11:12:40.153Z,100376.80
2022-08-25T11:15:18.108Z,100370.78
2022-08-25T11:17:54.949Z,100374.84
2022-08-25T11:20:33.397Z,100368.36
2022-08-25T11:23:22.893Z,100371.14
2022-08-25T11:25:56.275Z,100367.54
2022-08-25T11:28:40.200Z,100367.97
2022-08-25T11:31:10.959Z,100370.93
2022-08-25T11:33:39.362Z,100367.20
2022-08-25T11:36:29.397Z,100364.44
2022-08-25T11:39:34.426Z,100360.61
2022-08-25T11:42:18.262Z,100357.42
2022-08-25T11:45:08.023Z,100357.73
2022-08-25T11:48:12.563Z,100357.08
2022-08-25T11:51:05.274Z,100354.27
2022-08-25T11:54:11.931Z,100353.21
2022-08-25T11:56:41.734Z,100347.96
2022-08-25T11:59:10.324Z,100351.20
2022-08-25T12:01:44.514Z,100342.66
2022-08-25T12:04:33.839Z,100343.36
2022-08-25T12:07:08.754Z,100342.91
2022-08-25T12:09:57.101Z,100343.95
2022-08-25T12:12:45.846Z,100342.69
2022-08-25T12:15:34.743Z,100337.98
2022-08-25T12:18:24.390Z,100339.61
2022-08-25T12:20:56.148Z,100337.35
2022-08-25T12:23:33.923Z,100338.71
2022-08-25T12:26:08.134Z,100334.71
2022-08-25T12:29:11.259Z,100333.46
2022-08-25T12:31:54.854Z,100332.55
2022-08-25T12:34:43.022Z,100326.89
2022-08-25T12:37:16.417Z,100321.55
2022-08-25T12:39:51.825Z,100324.78
2022-08-25T12:42:31.200Z,100324.16
2022-08-25T12:45:17.567Z,100326.55
2022-08-25T12:47:49.892Z,100324.45
2022-08-25T12:50:39.494Z,100316.95
2022-08-25T12:53:11.406Z,100318.73
2022-08-25T12:55:46.642Z,100317.29
2022-08-25T12:58:14.287Z,100315.80
2022-08-25T13:01:01.954Z,100315.38
2022-08-25T13:06:30.350Z,100314.51
2022-08-25T13:09:13.264Z,100313.31
2022-08-25T13:11:56.555Z,100308.70
2022-08-25T13:14:38.855Z,100309.60
2022-08-25T13:17:09.541Z,100308.30
2022-08-25T13:19:38.118Z,100302.12
2022-08-25T13:22:16.485Z,100299.42
2022-08-25T13:24:47.427Z,100303.10
2022-08-25T13:27:24.041Z,100301.22
2022-08-25T13:29:58.324Z,100299.72
2022-08-25T13:32:35.662Z,100296.50
2022-08-25T13:35:22.262Z,100291.38
2022-08-25T13:37:50.588Z,100287.92
2022-08-25T13:40:36.546Z,100286.39
2022-08-25T13:43:11.565Z,100282.13
2022-08-25T13:45:42.969Z,100285.70
2022-08-25T13:48:21.116Z,100282.90
2022-08-25T13:50:52.008Z,100283.55
2022-08-25T13:53:26.654Z,100283.30
2022-08-25T13:56:00.670Z,100280.25
2022-08-25T13:58:45.612Z,100277.17
2022-08-25T14:01:48.211Z,100271.07
2022-08-25T14:04:33.875Z,100268.82
2022-08-25T14:07:14.262Z,100268.65
2022-08-25T14:10:07.013Z,100268.27
2022-08-25T14:13:08.990Z,100265.85
2022-08-25T14:15:38.613Z,100264.42
2022-08-25T14:18:13.978Z,100268.01
2022-08-25T14:20:50.667Z,100265.84
2022-08-25T14:23:22.182Z,100264.11
2022-08-25T14:25:51.693Z,100257.99
2022-08-25T14:28:23.230Z,100251.52
2022-08-25T14:30:58.402Z,100253.11
2022-08-25T14:33:33.998Z,100253.38
2022-08-25T14:36:04.737Z,100250.91
2022-08-25T14:38:34.213Z,100250.29
2022-08-25T14:41:01.900Z,100246.98
2022-08-25T14:43:31.995Z,100245.15
2022-08-25T14:46:16.776Z,100241.28
2022-08-25T14:48:46.812Z,100241.52
2022-08-25T14:51:16.549Z,100239.11
2022-08-25T14:53:44.295Z,100238.86
2022-08-25T14:56:12.093Z,100231.95
2022-08-25T14:58:50.868Z,100229.41
2022-08-25T15:01:28.693Z,100226.92
2022-08-25T15:04:07.002Z,100224.95
2022-08-25T15:06:36.603Z,100221.06
2022-08-25T15:09:11.186Z,100219.85
2022-08-25T15:11:42.412Z,100224.02
2022-08-25T15:14:13.089Z,100222.27
2022-08-25T15:16:45.338Z,100222.77
2022-08-25T15:19:16.121Z,100221.96
2022-08-25T15:21:46.168Z,100224.70
2022-08-25T15:24:17.508Z,100225.67
2022-08-25T15:29:20.673Z,100224.20
2022-08-25T15:31:48.322Z,100231.27
2022-08-25T15:34:16.236Z,100230.58
2022-08-25T15:36:43.928Z,100232.17
2022-08-25T15:39:11.875Z,100226.05
2022-08-25T15:41:40.513Z,100228.47
2022-08-25T15:44:11.460Z,100229.76
2022-08-25T15:46:41.463Z,100226.63
2022-08-25T15:49:09.638Z,100229.10
2022-08-25T15:51:38.899Z,100222.30
2022-08-25T15:54:07.513Z,100216.95
2022-08-25T15:56:36.857Z,100213.52
2022-08-25T15:59:05.312Z,100218.39
2022-08-25T16:01:37.165Z,100214.35
2022-08-25T16:04:05.256Z,100214.39
2022-08-25T16:06:34.028Z,100209.56
2022-08-25T16:09:02.644Z,100206.63
2022-08-25T16:11:35.134Z,100207.04
2022-08-25T16:14:02.973Z,100205.37
2022-08-25T16:16:31.940Z,100201.22
2022-08-25T16:19:00.515Z,100197.36
2022-08-25T16:21:33.414Z,100194.46
2022-08-25T16:24:07.754Z,100192.48
2022-08-25T16:26:38.058Z,100188.22
2022-08-25T16:29:17.139Z,100184.95
2022-08-25T16:31:45.719Z,100185.13
2022-08-25T16:34:22.157Z,100184.20
2022-08-25T16:36:53.582Z,100185.38
2022-08-25T16:39:23.951Z,100186.94
2022-08-25T16:41:52.518Z,100190.04
2022-08-25T16:44:22.602Z,100189.90
2022-08-25T16:46:54.462Z,100188.45
2022-08-25T16:49:24.512Z,100186.29
2022-08-25T16:51:57.332Z,100186.47
2022-08-25T16:54:42.692Z,100184.80
2022-08-25T16:57:10.669Z,100188.69
2022-08-25T16:59:38.582Z,100187.63
2022-08-25T17:02:06.900Z,100188.07
2022-08-25T17:04:34.969Z,100192.44
2022-08-25T17:07:03.197Z,100191.36
2022-08-25T17:09:32.826Z,100193.10
2022-08-25T17:12:00.447Z,100198.11
2022-08-25T17:14:28.753Z,100200.33
2022-08-25T17:16:56.360Z,100197.31
2022-08-25T17:19:25.744Z,100199.61
2022-08-25T17:21:55.039Z,100198.20
2022-08-25T17:24:29.379Z,100195.34
2022-08-25T17:27:01.460Z,100194.17
2022-08-25T17:29:29.702Z,100193.55
2022-08-25T17:31:58.373Z,100192.58
2022-08-25T17:34:27.979Z,100194.20
2022-08-25T17:36:57.293Z,100195.26
2022-08-25T17:39:25.837Z,100200.47
2022-08-25T17:41:54.661Z,100198.23
2022-08-25T17:44:22.388Z,100201.23
2022-08-25T17:46:51.795Z,100200.82
2022-08-25T17:49:19.585Z,100198.42
2022-08-25T17:51:47.466Z,100201.84
2022-08-25T17:54:15.202Z,100203.95
2022-08-25T17:56:44.367Z,100203.03
2022-08-25T17:59:13.701Z,100206.27
2022-08-25T18:01:42.210Z,100205.88
2022-08-25T18:04:17.371Z,100206.80
2022-08-25T18:06:48.363Z,100208.27
2022-08-25T18:09:16.597Z,100211.11
2022-08-25T18:11:45.709Z,100214.42
2022-08-25T18:14:16.415Z,100210.55
2022-08-25T18:16:45.264Z,100213.16
2022-08-25T18:19:14.357Z,100209.61
2022-08-25T18:21:43.251Z,100213.94
2022-08-25T18:24:11.818Z,100213.00
2022-08-25T18:26:41.435Z,100216.56
2022-08-25T18:29:12.913Z,100214.25
2022-08-25T18:31:41.735Z,100212.88
2022-08-25T18:34:11.293Z,100208.52
2022-08-25T18:36:39.277Z,100210.94
2022-08-25T18:39:23.406Z,100210.40
2022-08-25T18:41:51.158Z,100211.63
2022-08-25T18:44:19.105Z,100212.33
2022-08-25T18:46:47.602Z,100209.98
2022-08-25T18:49:17.129Z,100211.56
2022-08-25T18:51:46.839Z,100211.10
2022-08-25T18:54:23.184Z,100210.67
2022-08-25T18:56:53.221Z,100211.56
2022-08-25T18:59:23.625Z,100213.81
2022-08-25T19:01:53.995Z,100209.32
2022-08-25T19:04:31.788Z,100213.89
2022-08-25T19:07:01.788Z,100214.14
2022-08-25T19:09:32.084Z,100216.48
2022-08-25T19:12:00.281Z,100219.45
2022-08-25T19:14:28.482Z,100224.64
2022-08-25T19:17:01.014Z,100224.95
2022-08-25T19:19:28.893Z,100227.06
2022-08-25T19:21:58.140Z,100223.38
2022-08-25T19:24:28.224Z,100224.90
2022-08-25T19:26:56.935Z,100225.44
2022-08-25T19:29:26.411Z,100226.95
2022-08-25T19:31:54.824Z,100227.05
2022-08-25T19:34:28.320Z,100224.23
2022-08-25T19:37:01.743Z,100223.21
2022-08-25T19:39:35.025Z,100220.06
2022-08-25T19:42:03.361Z,100221.71
2022-08-25T19:44:32.148Z,100221.14
2022-08-25T19:47:00.006Z,100220.95
2022-08-25T19:49:34.121Z,100215.65
2022-08-25T19:52:10.596Z,100210.89
2022-08-25T19:54:45.723Z,100210.72
2022-08-25T19:57:27.785Z,100211.64
2022-08-25T19:59:56.851Z,100206.02
2022-08-25T20:02:29.464Z,100204.53
2022-08-25T20:04:59.433Z,100202.39
2022-08-25T20:07:30.407Z,100204.66
2022-08-25T20:10:00.693Z,100207.62
2022-08-25T20:12:28.941Z,100209.87
2022-08-25T20:14:57.743Z,100216.48
2022-08-25T20:17:28.220Z,100220.83
2022-08-25T20:19:59.999Z,100215.73
2022-08-25T20:22:30.351Z,100218.80
2022-08-25T20:25:02.349Z,100215.33
2022-08-25T20:27:36.548Z,100215.85
2022-08-25T20:30:08.206Z,100212.23
2022-08-25T20:32:37.151Z,100213.25
2022-08-25T20:35:08.979Z,100216.02
2022-08-25T20:37:37.291Z,100216.30
2022-08-25T20:40:06.797Z,100217.18
2022-08-25T20:42:35.214Z,100216.73
2022-08-25T20:45:07.542Z,100218.79
2022-08-25T20:47:36.261Z,100217.32
2022-08-25T20:50:06.961Z,100221.28
2022-08-25T20:52:34.934Z,100223.77
2022-08-25T20:55:04.806Z,100229.61
2022-08-25T20:57:33.152Z,100223.88
2022-08-25T21:00:02.355Z,100219.34
2022-08-25T21:02:30.468Z,100224.02
2022-08-25T21:04:58.088Z,100218.54
2022-08-25T21:07:26.148Z,100215.14
2022-08-25T21:09:55.942Z,100219.01
2022-08-25T21:12:23.847Z,100215.71
2022-08-25T21:14:51.756Z,100216.08
2022-08-25T21:17:20.338Z,100211.86
2022-08-25T21:22:16.799Z,100214.86
2022-08-25T21:24:45.052Z,100211.91
2022-08-25T21:27:13.093Z,100210.09
2022-08-25T21:29:54.421Z,100207.98
2022-08-25T21:32:24.404Z,100209.13
2022-08-25T21:34:57.134Z,100210.95
2022-08-25T21:37:26.781Z,100213.50
2022-08-25T21:39:54.676Z,100215.25
2022-08-25T21:42:23.862Z,100212.77
2022-08-25T21:44:53.034Z,100216.85
2022-08-25T21:47:21.682Z,100211.84
2022-08-25T21:49:51.019Z,100212.56
2022-08-25T21:52:19.020Z,100213.60
2022-08-25T21:54:46.651Z,100212.75
2022-08-25T21:57:16.675Z,100208.37
2022-08-25T21:59:45.164Z,100206.48
2022-08-25T22:02:13.958Z,100209.75
2022-08-25T22:04:42.123Z,100203.92
2022-08-25T22:07:11.091Z,100207.92
2022-08-25T22:09:40.007Z,100206.32
2022-08-25T22:12:08.592Z,100210.23
2022-08-25T22:14:37.593Z,100207.04
2022-08-25T22:17:09.023Z,100201.69
2022-08-25T22:19:38.848Z,100204.02
2022-08-25T22:22:06.830Z,100201.79
2022-08-25T22:24:34.575Z,100198.80
2022-08-25T22:27:02.236Z,100202.96
2022-08-25T22:29:30.666Z,100203.20
2022-08-25T22:32:02.162Z,100201.77
2022-08-25T22:34:34.530Z,100197.05
2022-08-25T22:37:04.482Z,100192.59
2022-08-25T22:39:34.236Z,100193.88
2022-08-25T22:42:03.704Z,100195.47
2022-08-25T22:44:31.440Z,100192.77
2022-08-25T22:46:59.034Z,100190.79
2022-08-25T22:49:29.152Z,100190.98
2022-08-25T22:51:57.870Z,100192.13
2022-08-25T22:54:25.747Z,100190.00
2022-08-25T22:56:53.724Z,100185.92
2022-08-25T22:59:22.503Z,100180.45
2022-08-25T23:01:52.661Z,100179.34
2022-08-25T23:04:22.912Z,100174.09
2022-08-25T23:06:53.000Z,100169.09
2022-08-25T23:09:21.483Z,100165.67
2022-08-25T23:11:51.217Z,100163.45
2022-08-25T23:14:19.964Z,100165.94
2022-08-25T23:16:50.183Z,100162.59
2022-08-25T23:19:18.327Z,100160.77
2022-08-25T23:22:02.507Z,100157.59
2022-08-25T23:24:31.121Z,100160.31
2022-08-25T23:27:00.764Z,100159.52
2022-08-25T23:29:29.900Z,100161.52
2022-08-25T23:31:58.586Z,100159.91
2022-08-25T23:34:26.665Z,100156.81
2022-08-25T23:36:56.907Z,100155.54
2022-08-25T23:39:24.953Z,100158.58
2022-08-25T23:41:53.202Z,100152.27
2022-08-25T23:44:23.144Z,100150.77
2022-08-25T23:46:53.739Z,100152.04
2022-08-25T23:49:23.601Z,100148.64
2022-08-25T23:51:52.937Z,100145.52
2022-08-25T23:54:21.383Z,100141.45
2022-08-25T23:56:52.436Z,100138.11
2022-08-25T23:59:24.510Z,100138.59
